Time;durP1;ratioP1;P1;durP2;ratioP2;P2;SDS_P1;SDS_P2;PMS_P1;PMS_P2;Temp;Humidity;BMP_temperature;BMP_pressure;BME280_temperature;BME280_humidity;BME280_pressure;Samples;Min_cycle;Max_cycle;Signal;HPM_P1;HPM_P2
2023/09/10 00:01:09;;;;;;;8.55;3.13;;;;;;;18.31;70.26;100735.91;5032228;28;20396;-66
2023/09/10 00:03:34;;;;;;;8.18;3.70;;;;;;;18.42;69.50;100729.03;5031951;28;20036;-64
2023/09/10 00:06:01;;;;;;;6.80;2.88;;;;;;;18.27;69.30;100721.06;5032044;28;20473;-64
2023/09/10 00:08:27;;;;;;;6.38;3.10;;;;;;;17.95;70.13;100661.53;5031761;28;20112;-65
2023/09/10 00:10:53;;;;;;;10.82;3.25;;;;;;;18.39;67.74;100729.03;5032076;28;20032;-64
2023/09/10 00:13:19;;;;;;;9.63;3.65;;;;;;;18.38;69.60;100726.38;5032008;28;20116;-65
2023/09/10 00:15:44;;;;;;;7.68;3.22;;;;;;;18.24;69.62;100700.13;5031589;28;20176;-63
2023/09/10 00:18:10;;;;;;;9.13;2.92;;;;;;;18.33;69.16;100717.63;5031661;28;20038;-64
2023/09/10 00:20:35;;;;;;;15.27;3.35;;;;;;;18.07;68.87;100726.09;5031722;28;20047;-64
2023/09/10 00:23:01;;;;;;;9.18;3.25;;;;;;;18.05;70.11;100725.19;5031150;28;20112;-64
2023/09/10 00:25:26;;;;;;;7.80;2.97;;;;;;;17.94;70.00;100693.72;5012748;28;20425;-65
2023/09/10 00:27:52;;;;;;;10.68;3.85;;;;;;;18.06;71.01;100716.50;5031472;28;20033;-64
2023/09/10 00:30:18;;;;;;;12.88;4.05;;;;;;;17.82;72.55;100694.47;5031535;28;20188;-66
2023/09/10 00:32:43;;;;;;;10.60;3.20;;;;;;;17.94;73.34;100723.38;5031330;28;20033;-63
2023/09/10 00:35:08;;;;;;;10.70;3.15;;;;;;;17.33;74.42;100654.72;5031267;28;20542;-69
2023/09/10 00:37:34;;;;;;;6.85;3.05;;;;;;;17.25;75.42;100637.25;5031244;28;20089;-65
2023/09/10 00:39:59;;;;;;;9.98;3.53;;;;;;;17.75;76.81;100723.97;5030970;28;20412;-65
2023/09/10 00:42:25;;;;;;;9.60;3.22;;;;;;;17.67;76.62;100723.00;5031478;28;20017;-70
2023/09/10 00:44:50;;;;;;;7.80;3.08;;;;;;;17.45;77.70;100700.13;5030937;28;20084;-64
2023/09/10 00:47:16;;;;;;;8.30;2.85;;;;;;;17.20;81.26;100727.63;5031400;28;20495;-64
2023/09/10 00:49:43;;;;;;;9.38;3.08;;;;;;;16.89;83.64;100721.94;5031135;28;20427;-65
2023/09/10 00:52:10;;;;;;;9.00;3.38;;;;;;;16.57;85.25;100706.66;5030756;28;20105;-66
2023/09/10 00:54:36;;;;;;;8.13;3.13;;;;;;;16.56;84.64;100709.25;5031171;28;20025;-64
2023/09/10 00:57:02;;;;;;;8.00;3.00;;;;;;;16.59;83.88;100723.22;5030722;28;20049;-64
2023/09/10 00:59:28;;;;;;;7.10;3.42;;;;;;;16.54;83.61;100719.66;5029686;28;20789;-64
2023/09/10 01:01:54;;;;;;;9.52;3.08;;;;;;;16.44;83.33;100708.19;5030750;28;20041;-64
2023/09/10 01:04:21;;;;;;;5.85;2.92;;;;;;;16.29;85.30;100724.44;5030666;28;20374;-64
2023/09/10 01:06:48;;;;;;;6.72;2.85;;;;;;;16.00;86.88;100718.72;5030854;28;20036;-69
2023/09/10 01:09:13;;;;;;;10.52;3.30;;;;;;;15.69;87.40;100658.22;5031234;28;20029;-65
2023/09/10 01:11:57;;;;;;;10.05;3.15;;;;;;;16.22;85.04;100722.56;5030733;28;20025;-65
2023/09/10 01:14:25;;;;;;;8.52;3.28;;;;;;;15.80;83.61;100661.91;5030837;28;20471;-71
2023/09/10 01:17:35;;;;;;;11.93;3.55;;;;;;;16.18;81.65;100726.00;5030618;28;20033;-64
2023/09/10 01:20:14;;;;;;;;;;;;;;;16.26;79.23;100723.50;4950553;29;20567;-64
2023/09/10 01:22:51;;;;;;;17.15;3.80;;;;;;;16.35;78.09;100721.09;4950176;29;19997;-69
2023/09/10 01:25:17;;;;;;;16.73;3.83;;;;;;;16.31;76.82;100714.94;4950091;29;20046;-65
2023/09/10 01:27:43;;;;;;;11.95;3.63;;;;;;;16.24;75.98;100705.25;4949780;29;20495;-66
2023/09/10 01:30:09;;;;;;;11.15;3.00;;;;;;;16.41;75.38;100723.78;4950075;29;20134;-63
2023/09/10 01:32:48;;;;;;;12.30;3.58;;;;;;;16.33;75.48;100735.81;4950136;28;20039;-65
2023/09/10 01:35:25;;;;;;;10.20;3.10;;;;;;;16.27;75.48;100692.28;4949809;28;20050;-63
2023/09/10 01:38:21;;;;;;;8.38;3.13;;;;;;;16.37;75.37;100721.97;4949859;29;20790;-65
2023/09/10 01:40:53;;;;;;;9.48;3.42;;;;;;;16.17;75.37;100691.25;4949800;29;20530;-65
2023/09/10 01:43:19;;;;;;;8.80;3.05;;;;;;;16.31;75.25;100704.53;4949837;29;20538;-68
2023/09/10 01:45:45;;;;;;;13.23;3.28;;;;;;;16.43;74.57;100719.47;4949983;29;20038;-65
2023/09/10 01:48:10;;;;;;;8.95;3.35;;;;;;;15.89;74.50;100616.97;4949849;29;20130;-63
2023/09/10 01:50:36;;;;;;;11.70;3.58;;;;;;;16.37;74.08;100718.50;4949715;29;20043;-70
2023/09/10 01:53:01;;;;;;;9.90;3.25;;;;;;;16.43;73.40;100721.22;4949825;29;20070;-65
2023/09/10 01:55:26;;;;;;;9.32;2.80;;;;;;;16.45;73.59;100717.78;4991777;28;20106;-64
2023/09/10 01:57:54;;;;;;;12.73;3.72;;;;;;;16.47;73.52;100712.59;5030348;28;20111;-63
2023/09/10 02:00:19;;;;;;;9.38;3.40;;;;;;;16.41;73.44;100700.34;5030090;28;20026;-63
2023/09/10 02:02:45;;;;;;;9.23;3.25;;;;;;;16.55;74.24;100716.19;5030081;28;20021;-64
2023/09/10 02:05:10;;;;;;;9.65;3.72;;;;;;;16.52;74.97;100713.53;5029760;28;20022;-65
2023/09/10 02:07:35;;;;;;;10.98;3.20;;;;;;;16.36;75.95;100715.00;5030310;28;20032;-65
2023/09/10 02:10:02;;;;;;;6.85;3.05;;;;;;;16.20;77.14;100721.69;5029986;28;20501;-64
2023/09/10 02:12:27;;;;;;;9.80;3.13;;;;;;;16.22;77.13;100722.56;5042612;28;20063;-65
2023/09/10 02:14:52;;;;;;;6.72;3.35;;;;;;;16.25;77.88;100722.66;5048693;28;20187;-65
2023/09/10 02:17:18;;;;;;;6.60;3.17;;;;;;;15.82;79.61;100727.91;5050032;28;20035;-64
2023/09/10 02:19:44;;;;;;;8.23;3.75;;;;;;;15.90;79.71;100730.69;5049796;28;20039;-64
2023/09/10 02:22:09;;;;;;;12.65;3.72;;;;;;;15.93;79.59;100727.25;5049685;28;20122;-63
2023/09/10 02:24:34;;;;;;;10.88;3.33;;;;;;;15.93;79.50;100730.72;5050155;28;20140;-64
2023/09/10 02:27:00;;;;;;;9.02;2.85;;;;;;;15.55;79.32;100650.13;5050065;28;20025;-64
2023/09/10 02:29:25;;;;;;;11.60;3.38;;;;;;;16.06;79.07;100723.16;5048727;28;20464;-65
2023/09/10 02:31:50;;;;;;;8.25;2.97;;;;;;;16.03;78.08;100721.38;5049958;28;20083;-70
2023/09/10 02:34:16;;;;;;;9.85;3.60;;;;;;;15.88;76.91;100721.09;5049432;28;20116;-66
2023/09/10 02:36:41;;;;;;;8.15;3.22;;;;;;;15.59;77.42;100717.03;5049769;28;20021;-64
2023/09/10 02:39:07;;;;;;;7.30;3.03;;;;;;;15.43;78.49;100718.44;5049667;28;20044;-65
2023/09/10 02:41:32;;;;;;;7.50;2.97;;;;;;;15.26;79.81;100725.88;5049630;28;20040;-66
2023/09/10 02:43:58;;;;;;;9.55;3.13;;;;;;;15.37;80.31;100724.38;5049494;28;20021;-64
2023/09/10 02:46:25;;;;;;;6.35;3.22;;;;;;;15.20;80.07;100679.81;5049609;28;20116;-65
2023/09/10 02:48:50;;;;;;;8.68;3.17;;;;;;;15.41;80.07;100719.25;5051856;28;20037;-65
2023/09/10 02:51:16;;;;;;;10.68;3.13;;;;;;;15.36;80.41;100712.22;5053216;28;20427;-68
2023/09/10 02:53:41;;;;;;;10.05;3.67;;;;;;;15.45;80.56;100710.66;5017971;28;20106;-64
2023/09/10 02:56:07;;;;;;;10.20;3.80;;;;;;;15.40;80.50;100696.69;5053126;28;20408;-64
2023/09/10 02:58:32;;;;;;;8.80;3.00;;;;;;;15.26;81.35;100709.41;5052703;28;20055;-64
2023/09/10 03:01:04;;;;;;;7.70;3.22;;;;;;;15.27;81.40;100717.22;5053221;28;20025;-64
2023/09/10 03:03:31;;;;;;;7.03;3.13;;;;;;;15.27;80.92;100708.56;5052721;28;20039;-65
2023/09/10 03:05:56;;;;;;;9.32;3.28;;;;;;;15.20;80.71;100715.31;5053185;28;20369;-65
2023/09/10 03:08:22;;;;;;;9.60;3.53;;;;;;;15.21;80.75;100719.69;5052697;28;20075;-64
2023/09/10 03:10:47;;;;;;;9.55;3.40;;;;;;;15.22;80.89;100729.25;5052991;28;20037;-63
2023/09/10 03:13:13;;;;;;;8.50;3.17;;;;;;;15.02;81.79;100734.88;5052842;28;20159;-64
2023/09/10 03:15:38;;;;;;;10.95;3.40;;;;;;;14.96;81.94;100732.13;5001020;28;20048;-65
2023/09/10 03:18:04;;;;;;;7.35;3.55;;;;;;;15.06;81.65;100732.34;5052532;28;20047;-64
2023/09/10 03:20:29;;;;;;;7.78;3.38;;;;;;;15.19;81.62;100735.28;5052628;28;20081;-63
2023/09/10 03:22:58;;;;;;;14.40;3.25;;;;;;;15.14;81.20;100736.88;5052732;28;20102;-64
2023/09/10 03:25:24;;;;;;;11.48;4.00;;;;;;;14.83;82.21;100750.91;5052686;28;20104;-64
2023/09/10 03:27:49;;;;;;;8.98;3.22;;;;;;;14.30;83.20;100682.00;5052860;28;20104;-65
2023/09/10 03:30:16;;;;;;;8.20;3.47;;;;;;;14.63;83.55;100730.47;5052550;28;20059;-64
2023/09/10 03:32:42;;;;;;;11.75;3.40;;;;;;;14.69;83.51;100741.06;5052310;28;20083;-64
2023/09/10 03:35:08;;;;;;;8.52;3.25;;;;;;;14.71;83.20;100736.75;5052580;28;20029;-65
2023/09/10 03:37:33;;;;;;;8.40;3.17;;;;;;;14.69;83.23;100751.44;5052512;28;20124;-64
2023/09/10 03:39:58;;;;;;;10.27;3.45;;;;;;;14.35;83.34;100675.22;5052497;28;20032;-64
2023/09/10 03:42:24;;;;;;;9.68;3.67;;;;;;;14.82;83.73;100747.41;5052146;28;20021;-63
2023/09/10 03:44:49;;;;;;;7.80;3.22;;;;;;;14.35;84.17;100689.94;5052198;28;20029;-64
2023/09/10 03:47:14;;;;;;;11.73;3.45;;;;;;;14.63;84.69;100758.16;5051944;28;20027;-64
2023/09/10 03:49:40;;;;;;;11.63;3.50;;;;;;;14.66;84.66;100753.09;5052072;28;20021;-63
2023/09/10 03:52:20;;;;;;;7.35;3.10;;;;;;;14.62;84.21;100762.47;5052453;28;20459;-68
2023/09/10 03:54:45;;;;;;;8.55;3.40;;;;;;;14.61;84.56;100752.06;5052320;28;20037;-64
2023/09/10 03:57:11;;;;;;;11.73;3.22;;;;;;;14.71;84.70;100764.47;5051885;28;20562;-64
2023/09/10 03:59:36;;;;;;;7.70;3.05;;;;;;;14.71;84.88;100754.94;5051823;28;20040;-66
2023/09/10 04:02:02;;;;;;;7.72;3.22;;;;;;;14.33;84.86;100681.22;5052025;28;20052;-63
2023/09/10 04:04:28;;;;;;;7.38;3.35;;;;;;;14.75;85.00;100742.03;5052242;28;20610;-64
2023/09/10 04:06:54;;;;;;;10.35;3.22;;;;;;;14.66;84.15;100747.88;5052049;28;20052;-65
2023/09/10 04:09:19;;;;;;;8.38;3.58;;;;;;;14.62;84.69;100756.41;5051958;28;20476;-65
2023/09/10 04:11:44;;;;;;;10.05;3.10;;;;;;;14.74;84.79;100761.06;5051866;28;20033;-63
2023/09/10 04:14:10;;;;;;;12.05;3.38;;;;;;;14.71;85.73;100767.06;5051885;28;20115;-64
2023/09/10 04:16:36;;;;;;;26.40;4.35;;;;;;;14.65;86.39;100766.91;5051412;28;20032;-64
2023/09/10 04:19:02;;;;;;;34.40;4.35;;;;;;;14.65;86.96;100765.19;5051735;28;20049;-69
2023/09/10 04:21:27;;;;;;;47.08;5.18;;;;;;;14.62;87.68;100761.63;5051556;28;20033;-64
2023/09/10 04:23:53;;;;;;;7.47;3.33;;;;;;;14.27;87.07;100696.63;5051478;28;20033;-63
2023/09/10 04:26:18;;;;;;;12.35;2.80;;;;;;;14.75;87.21;100755.03;5051600;28;20021;-64
2023/09/10 04:28:43;;;;;;;13.00;3.40;;;;;;;14.83;87.47;100761.31;5051511;28;20079;-65
2023/09/10 04:31:13;;;;;;;14.20;3.22;;;;;;;14.80;87.78;100777.66;5050977;28;20496;-66
2023/09/10 04:33:38;;;;;;;11.05;3.10;;;;;;;14.91;87.20;100767.53;5051321;28;20110;-65
2023/09/10 04:36:04;;;;;;;11.57;3.33;;;;;;;15.02;85.91;100773.00;5050912;28;20115;-71
2023/09/10 04:38:29;;;;;;;8.38;3.22;;;;;;;15.02;84.14;100773.00;5051173;28;20043;-64
2023/09/10 04:40:55;;;;;;;8.60;2.95;;;;;;;14.99;84.60;100778.13;5051051;28;20025;-64
2023/09/10 04:43:21;;;;;;;9.20;4.05;;;;;;;14.88;84.71;100765.75;5051040;28;20021;-64
2023/09/10 04:45:47;;;;;;;9.88;3.50;;;;;;;15.02;84.30;100780.81;5051077;28;20404;-64
2023/09/10 04:48:13;;;;;;;10.05;3.33;;;;;;;15.01;83.79;100758.25;5051128;28;20021;-65
2023/09/10 04:50:39;;;;;;;9.10;3.25;;;;;;;15.19;84.03;100776.00;5015823;28;20114;-64
2023/09/10 04:53:04;;;;;;;18.33;4.03;;;;;;;15.28;84.91;100776.22;5050922;28;20111;-65
2023/09/10 04:55:30;;;;;;;9.15;3.50;;;;;;;15.19;86.04;100781.22;5050637;28;20043;-64
2023/09/10 04:57:55;;;;;;;11.90;3.30;;;;;;;15.16;86.91;100773.31;5051064;28;20136;-65
2023/09/10 05:00:21;;;;;;;10.98;4.38;;;;;;;15.20;89.33;100776.03;5050850;28;20058;-66
2023/09/10 05:02:46;;;;;;;7.18;3.70;;;;;;;15.24;90.41;100778.69;5059197;28;20494;-64
2023/09/10 05:05:11;;;;;;;11.48;4.75;;;;;;;15.12;91.52;100766.31;5057308;28;20031;-68
2023/09/10 05:07:37;;;;;;;14.00;4.15;;;;;;;15.31;91.11;100776.25;5051011;28;20048;-64
2023/09/10 05:10:02;;;;;;;9.00;3.80;;;;;;;15.27;89.67;100757.97;5057079;28;20139;-70
2023/09/10 05:12:28;;;;;;;8.80;4.25;;;;;;;15.52;88.75;100775.00;5070313;28;20047;-66
2023/09/10 05:14:53;;;;;;;10.38;3.70;;;;;;;15.59;88.28;100763.88;5070284;28;20035;-65
2023/09/10 05:17:18;;;;;;;13.05;3.58;;;;;;;15.61;88.00;100756.94;5070720;28;20103;-64
2023/09/10 05:19:44;;;;;;;10.20;3.53;;;;;;;15.21;87.27;100691.06;5070362;28;20027;-64
2023/09/10 05:22:10;;;;;;;55.15;6.40;;;;;;;15.77;86.64;100775.50;5057754;28;20550;-65
2023/09/10 05:24:35;;;;;;;14.57;4.05;;;;;;;15.85;84.60;100774.84;5050623;28;20033;-64
2023/09/10 05:27:01;;;;;;;10.77;3.40;;;;;;;15.93;83.58;100774.13;5050451;28;20032;-64
2023/09/10 05:29:26;;;;;;;11.82;3.92;;;;;;;15.93;82.70;100782.81;5045351;28;20420;-68
2023/09/10 05:31:52;;;;;;;7.47;3.05;;;;;;;15.55;82.83;100707.38;5050147;28;20056;-64
2023/09/10 05:34:19;;;;;;;8.60;3.67;;;;;;;15.45;83.71;100698.53;5050074;28;20021;-65
2023/09/10 05:36:44;;;;;;;8.90;3.35;;;;;;;15.96;83.58;100788.09;5050293;28;20104;-64
2023/09/10 05:39:10;;;;;;;9.52;3.67;;;;;;;15.97;81.42;100770.72;5068730;28;20029;-63
2023/09/10 05:41:35;;;;;;;11.07;4.15;;;;;;;16.11;80.84;100776.19;5048756;28;20392;-69
2023/09/10 05:44:01;;;;;;;8.23;4.15;;;;;;;16.32;79.92;100789.66;5049388;28;20037;-67
2023/09/10 05:46:26;;;;;;;7.35;4.15;;;;;;;16.48;79.19;100796.00;5031649;28;20100;-67
2023/09/10 05:48:51;;;;;;;11.77;3.60;;;;;;;16.53;79.27;100790.88;5049645;28;20481;-65
2023/09/10 05:51:17;;;;;;;9.10;3.58;;;;;;;16.41;80.90;100782.84;5049656;28;20025;-63
2023/09/10 05:53:44;;;;;;;6.65;3.53;;;;;;;16.52;80.62;100798.66;5048672;28;20033;-64
2023/09/10 05:56:10;;;;;;;8.05;3.65;;;;;;;16.32;80.68;100804.38;5048893;28;20531;-65
2023/09/10 05:58:35;;;;;;;10.15;3.92;;;;;;;16.40;81.02;100799.31;5048654;28;20057;-70
2023/09/10 06:01:01;;;;;;;8.57;3.10;;;;;;;16.25;80.49;100738.28;5049046;28;20041;-69
2023/09/10 06:03:26;;;;;;;13.23;3.75;;;;;;;16.83;79.05;100805.28;5049158;28;20472;-64
2023/09/10 06:05:52;;;;;;;10.32;3.83;;;;;;;16.59;79.12;100753.63;5049577;28;20100;-64
2023/09/10 06:08:17;;;;;;;9.10;3.92;;;;;;;16.84;79.83;100816.59;5049756;28;20375;-63
2023/09/10 06:10:43;;;;;;;11.05;4.07;;;;;;;16.86;79.64;100812.28;5049362;28;20029;-67
2023/09/10 06:13:08;;;;;;;14.55;4.32;;;;;;;16.73;81.47;100814.66;5048737;28;20025;-66
2023/09/10 06:15:34;;;;;;;6.90;3.60;;;;;;;16.80;81.31;100819.16;5049679;28;20536;-64
2023/09/10 06:17:59;;;;;;;6.32;3.53;;;;;;;16.82;80.83;100824.38;5049188;28;20029;-63
2023/09/10 06:20:24;;;;;;;11.75;3.65;;;;;;;16.49;79.88;100752.59;4997529;28;20098;-66
2023/09/10 06:22:52;;;;;;;12.20;3.97;;;;;;;16.82;79.31;100775.75;5051939;28;20021;-66
2023/09/10 06:25:18;;;;;;;8.95;3.53;;;;;;;17.15;78.57;100758.00;5053542;28;20029;-65
2023/09/10 06:27:44;;;;;;;7.95;3.28;;;;;;;17.80;76.76;100805.84;5052903;28;20082;-70
2023/09/10 06:30:10;;;;;;;8.75;3.65;;;;;;;17.89;76.72;100818.16;5034030;28;20033;-64
2023/09/10 06:32:35;;;;;;;7.60;3.55;;;;;;;17.89;75.72;100813.78;5050018;28;20095;-66
2023/09/10 06:35:01;;;;;;;6.82;3.20;;;;;;;17.94;75.98;100806.94;5053234;28;20538;-64
2023/09/10 06:37:26;;;;;;;10.13;3.10;;;;;;;17.83;75.96;100818.97;5053163;28;20451;-65
2023/09/10 06:39:52;;;;;;;11.95;3.20;;;;;;;17.34;75.72;100747.84;5053065;28;20048;-65
2023/09/10 06:42:17;;;;;;;9.55;3.28;;;;;;;17.85;74.67;100816.38;5052523;28;20463;-66
2023/09/10 06:44:43;;;;;;;11.45;3.45;;;;;;;17.75;75.04;100790.13;5053054;28;20480;-64
2023/09/10 06:47:11;;;;;;;13.75;3.78;;;;;;;18.03;73.91;100815.72;5052554;28;20408;-68
2023/09/10 06:49:37;;;;;;;18.02;4.40;;;;;;;18.40;70.98;100824.84;5052674;28;20556;-66
2023/09/10 06:52:04;;;;;;;15.90;4.40;;;;;;;18.72;70.34;100820.81;5052747;28;20025;-64
2023/09/10 06:54:30;;;;;;;13.05;4.35;;;;;;;18.67;70.36;100767.59;5053147;28;20094;-64
2023/09/10 06:56:55;;;;;;;18.42;4.20;;;;;;;19.28;68.84;100822.16;5052358;28;20455;-64
2023/09/10 06:59:21;;;;;;;16.02;4.70;;;;;;;19.37;67.30;100816.09;5053049;28;20132;-66
2023/09/10 07:01:46;;;;;;;22.92;5.13;;;;;;;19.54;67.17;100824.94;5034348;28;20044;-65
2023/09/10 07:04:17;;;;;;;11.63;4.25;;;;;;;19.76;65.84;100817.19;5052644;28;20033;-63
2023/09/10 07:06:48;;;;;;;28.25;4.93;;;;;;;19.92;64.74;100812.06;5052132;28;20057;-65
2023/09/10 07:09:18;;;;;;;23.55;4.75;;;;;;;20.19;64.09;100825.25;5052485;28;20033;-66
2023/09/10 07:11:43;;;;;;;15.30;4.63;;;;;;;20.43;63.82;100828.78;5052034;28;20415;-66
2023/09/10 07:14:09;;;;;;;17.35;5.30;;;;;;;20.53;62.29;100814.81;5052644;28;20041;-66
2023/09/10 07:16:34;;;;;;;15.38;4.78;;;;;;;20.52;64.02;100818.34;5051710;28;20032;-70
2023/09/10 07:19:01;;;;;;;15.38;5.07;;;;;;;20.47;63.46;100806.97;5052401;28;20041;-66
2023/09/10 07:21:27;;;;;;;17.73;5.00;;;;;;;20.55;63.75;100820.09;5052265;28;20021;-65
2023/09/10 07:23:52;;;;;;;17.10;4.80;;;;;;;20.59;63.41;100810.47;5051639;28;20029;-66
2023/09/10 07:26:18;;;;;;;14.07;4.57;;;;;;;20.73;63.79;100814.00;5060116;28;20029;-66
2023/09/10 07:28:43;;;;;;;14.68;4.15;;;;;;;20.76;64.88;100805.25;5071860;28;20373;-65
2023/09/10 07:31:09;;;;;;;12.00;3.55;;;;;;;20.97;64.12;100818.38;5072372;28;20059;-65
2023/09/10 07:33:34;;;;;;;9.93;3.50;;;;;;;21.03;62.97;100821.88;5071087;28;20174;-64
2023/09/10 07:35:59;;;;;;;17.88;4.00;;;;;;;21.26;62.76;100816.59;5071787;28;20472;-71
2023/09/10 07:38:25;;;;;;;14.82;4.13;;;;;;;21.41;60.46;100811.31;5070994;28;20025;-67
2023/09/10 07:40:50;;;;;;;14.05;3.63;;;;;;;21.54;58.33;100816.53;5072232;28;20458;-66
2023/09/10 07:43:16;;;;;;;11.60;4.07;;;;;;;21.74;58.54;100798.97;5058481;28;20079;-65
2023/09/10 07:45:41;;;;;;;17.02;3.90;;;;;;;21.91;61.14;100805.94;5071279;28;20787;-66
2023/09/10 07:48:06;;;;;;;11.93;3.92;;;;;;;21.95;60.79;100805.03;5071996;28;20146;-71
2023/09/10 07:50:32;;;;;;;11.60;3.72;;;;;;;22.13;58.49;100804.94;5071617;28;20035;-66
2023/09/10 07:52:58;;;;;;;13.70;3.58;;;;;;;21.96;57.36;100743.69;5071879;28;20044;-65
2023/09/10 07:55:23;;;;;;;18.77;3.92;;;;;;;22.55;57.17;100795.94;5071742;28;20040;-65
2023/09/10 07:57:49;;;;;;;14.85;4.47;;;;;;;22.65;59.20;100789.72;5071860;28;20052;-66
2023/09/10 08:00:16;;;;;;;21.10;4.70;;;;;;;22.89;57.99;100800.91;5071424;28;20128;-65
2023/09/10 08:02:42;;;;;;;15.63;4.72;;;;;;;23.06;57.59;100796.38;5071108;28;20028;-66
2023/09/10 08:05:07;;;;;;;18.48;4.85;;;;;;;23.26;56.73;100784.81;5071577;28;20028;-65
2023/09/10 08:07:33;;;;;;;15.40;4.60;;;;;;;23.35;58.08;100771.53;5071343;28;20115;-64
2023/09/10 08:09:58;;;;;;;16.05;5.18;;;;;;;23.55;57.14;100783.59;5071199;28;20043;-65
2023/09/10 08:12:24;;;;;;;22.08;5.18;;;;;;;23.71;59.81;100779.00;5071326;28;20468;-65
2023/09/10 08:14:49;;;;;;;22.80;5.10;;;;;;;23.95;56.83;100775.22;5053372;28;20033;-65
2023/09/10 08:17:14;;;;;;;16.98;5.20;;;;;;;24.10;57.27;100783.81;5035542;28;20521;-66
2023/09/10 08:19:40;;;;;;;10.55;3.75;;;;;;;24.29;55.93;100790.56;5070740;28;20032;-67
2023/09/10 08:22:05;;;;;;;6.07;2.78;;;;;;;24.45;55.54;100783.28;5058889;28;20119;-68
2023/09/10 08:24:31;;;;;;;10.68;3.63;;;;;;;24.51;56.57;100774.38;5070208;28;20139;-71
2023/09/10 08:27:02;;;;;;;17.98;3.92;;;;;;;24.44;57.22;100756.94;5071194;28;20095;-66
2023/09/10 08:29:28;;;;;;;8.63;3.60;;;;;;;24.66;55.42;100768.91;5070348;28;20464;-66
2023/09/10 08:31:53;;;;;;;17.38;4.43;;;;;;;24.73;55.58;100768.81;5070533;28;20023;-66
2023/09/10 08:34:19;;;;;;;11.20;3.20;;;;;;;24.86;56.50;100762.38;5070982;28;20028;-67
2023/09/10 08:36:44;;;;;;;14.25;4.45;;;;;;;24.90;55.42;100758.81;5070157;28;20025;-66
2023/09/10 08:39:10;;;;;;;12.95;4.32;;;;;;;24.95;54.58;100756.97;5070408;28;20032;-66
2023/09/10 08:41:54;;;;;;;6.88;3.17;;;;;;;25.18;53.26;100758.28;5068065;28;20044;-66
2023/09/10 08:44:22;;;;;;;7.45;3.05;;;;;;;25.37;50.66;100744.75;5069442;28;20107;-65
2023/09/10 08:46:51;;;;;;;10.60;3.13;;;;;;;25.07;49.96;100747.91;5051804;28;20069;-70
2023/09/10 08:49:19;;;;;;;9.90;3.17;;;;;;;24.63;49.29;100697.63;5069570;28;20150;-67
2023/09/10 08:51:44;;;;;;;11.45;3.72;;;;;;;24.75;50.44;100707.16;5034698;28;20110;-66
2023/09/10 08:54:12;;;;;;;14.95;3.80;;;;;;;24.95;49.94;100738.47;5069722;28;20463;-66
2023/09/10 08:56:38;;;;;;;9.25;3.08;;;;;;;24.80;47.65;100725.53;5035063;28;20086;-66
2023/09/10 08:59:04;;;;;;;18.65;3.40;;;;;;;24.95;46.57;100754.31;5052589;28;20044;-66
2023/09/10 09:01:30;;;;;;;7.75;2.67;;;;;;;25.18;47.01;100745.09;5070033;28;20021;-66
2023/09/10 09:03:56;;;;;;;13.68;3.72;;;;;;;25.31;46.01;100749.25;5069645;28;20024;-68
2023/09/10 09:06:24;;;;;;;9.05;2.80;;;;;;;25.43;43.56;100749.91;5070423;28;20032;-65
2023/09/10 09:08:59;;;;;;;12.93;3.03;;;;;;;25.55;42.88;100733.81;5070339;28;20099;-65
2023/09/10 09:11:27;;;;;;;5.85;2.60;;;;;;;25.78;42.05;100746.53;5070243;28;20024;-63
2023/09/10 09:13:54;;;;;;;23.05;3.85;;;;;;;25.64;43.69;100688.66;5070149;28;20036;-65
2023/09/10 09:16:23;;;;;;;18.50;3.38;;;;;;;26.23;42.55;100748.22;5069209;28;20052;-65
2023/09/10 09:18:48;;;;;;;19.60;4.25;;;;;;;26.19;42.16;100741.22;5070376;28;20116;-65
2023/09/10 09:21:19;;;;;;;17.83;3.92;;;;;;;26.17;43.16;100737.75;5069569;28;20498;-66
2023/09/10 09:23:53;;;;;;;16.60;3.85;;;;;;;26.26;43.21;100744.63;5070081;28;20133;-64
2023/09/10 09:26:21;;;;;;;21.23;4.07;;;;;;;26.11;42.59;100744.06;5069611;28;20531;-66
2023/09/10 09:28:46;;;;;;;11.30;3.80;;;;;;;25.99;43.69;100744.31;5070001;28;20029;-65
2023/09/10 09:31:12;;;;;;;13.52;4.88;;;;;;;25.91;48.06;100736.56;5069861;28;20020;-66
2023/09/10 09:33:38;;;;;;;12.43;4.05;;;;;;;25.82;48.76;100747.31;5069197;28;20068;-66
2023/09/10 09:36:10;;;;;;;28.88;4.88;;;;;;;25.82;49.32;100739.38;5068614;28;20032;-67
2023/09/10 09:38:41;;;;;;;9.77;3.03;;;;;;;25.82;47.45;100726.16;5069415;28;20480;-71
2023/09/10 09:41:07;;;;;;;22.67;4.20;;;;;;;25.86;48.77;100749.00;5068228;28;20036;-66
2023/09/10 09:43:36;;;;;;;12.77;3.40;;;;;;;25.80;50.33;100738.56;5069141;28;20496;-66
2023/09/10 09:46:03;;;;;;;18.05;4.40;;;;;;;25.78;52.07;100741.25;5055299;28;20035;-66
2023/09/10 09:48:29;;;;;;;27.33;5.07;;;;;;;25.34;52.84;100669.03;5069488;28;20184;-64
2023/09/10 09:50:56;;;;;;;15.18;4.20;;;;;;;25.90;52.54;100740.09;5069352;28;20020;-64
2023/09/10 09:53:26;;;;;;;22.77;5.40;;;;;;;25.59;52.23;100679.09;5069245;28;20112;-66
2023/09/10 09:56:03;;;;;;;18.10;4.30;;;;;;;25.72;51.47;100735.22;5069529;28;20473;-64
2023/09/10 09:58:29;;;;;;;8.35;3.25;;;;;;;25.87;51.86;100707.56;5073396;28;20440;-63
2023/09/10 10:00:55;;;;;;;10.07;3.30;;;;;;;26.29;49.32;100728.66;5056022;28;20475;-64
2023/09/10 10:03:21;;;;;;;12.90;3.45;;;;;;;26.41;51.24;100722.19;5073670;28;20021;-65
2023/09/10 10:05:50;;;;;;;13.32;3.60;;;;;;;26.56;52.51;100726.22;5073564;28;20031;-66
2023/09/10 10:08:17;;;;;;;11.88;3.60;;;;;;;26.48;52.32;100737.88;5073252;28;20394;-65
2023/09/10 10:10:49;;;;;;;14.15;3.15;;;;;;;26.26;52.81;100731.38;5073302;28;20114;-66
2023/09/10 10:13:17;;;;;;;19.88;4.75;;;;;;;26.26;56.26;100729.59;5073740;28;20073;-66
2023/09/10 10:15:48;;;;;;;13.50;4.88;;;;;;;26.18;52.79;100657.44;5073369;28;20516;-69
2023/09/10 10:18:18;;;;;;;14.65;3.22;;;;;;;26.72;53.35;100709.03;5073533;28;20019;-65
2023/09/10 10:20:49;;;;;;;26.83;5.32;;;;;;;26.86;53.46;100718.44;5073030;28;20392;-66
2023/09/10 10:23:19;;;;;;;19.25;4.22;;;;;;;26.71;54.64;100728.47;5072757;28;20017;-67
2023/09/10 10:25:46;;;;;;;27.23;5.32;;;;;;;25.78;56.31;100624.00;5073152;28;20411;-63
2023/09/10 10:28:12;;;;;;;25.27;5.82;;;;;;;26.28;59.05;100735.72;5072578;28;20399;-66
2023/09/10 10:31:03;;;;;;;16.40;4.45;;;;;;;26.20;58.30;100737.69;5073226;28;20032;-71
2023/09/10 10:33:32;;;;;;;25.25;4.72;;;;;;;26.27;58.46;100743.69;5050520;28;20111;-70
2023/09/10 10:36:08;;;;;;;35.87;6.57;;;;;;;26.39;59.45;100750.47;5073080;28;20028;-64
2023/09/10 10:38:36;;;;;;;27.27;4.38;;;;;;;26.54;57.05;100739.47;5073142;28;20063;-66
2023/09/10 10:41:23;;;;;;;26.75;4.07;;;;;;;26.38;56.62;100699.31;5068268;28;20023;-66
2023/09/10 10:43:57;;;;;;;24.17;4.50;;;;;;;26.71;56.01;100752.31;5057575;28;20091;-67
2023/09/10 10:46:25;;;;;;;19.15;4.10;;;;;;;26.79;56.69;100744.19;5071910;28;20028;-69
2023/09/10 10:49:11;;;;;;;12.02;3.53;;;;;;;26.75;55.16;100734.59;5023256;28;20124;-64
2023/09/10 10:51:47;;;;;;;15.95;3.78;;;;;;;26.49;55.89;100722.84;5010414;28;20482;-64
2023/09/10 10:54:15;;;;;;;31.38;4.93;;;;;;;26.55;56.83;100737.72;5010332;28;20100;-67
2023/09/10 10:56:41;;;;;;;24.85;4.80;;;;;;;26.62;57.18;100740.19;5010113;28;20057;-65
2023/09/10 10:59:06;;;;;;;20.27;4.53;;;;;;;26.78;58.28;100739.78;5010372;28;20100;-64
2023/09/10 11:01:32;;;;;;;20.40;3.90;;;;;;;26.95;55.96;100728.75;5007173;28;20208;-64
2023/09/10 11:03:57;;;;;;;18.23;4.15;;;;;;;27.03;54.73;100720.59;4993147;28;20026;-65
2023/09/10 11:06:23;;;;;;;25.92;3.80;;;;;;;27.20;55.21;100730.72;5010205;28;20048;-62
2023/09/10 11:08:48;;;;;;;13.10;3.70;;;;;;;27.09;53.45;100718.66;5009650;28;20113;-65
2023/09/10 11:11:32;;;;;;;17.27;4.00;;;;;;;26.90;52.66;100723.56;5009895;28;20041;-64
2023/09/10 11:14:00;;;;;;;18.95;3.85;;;;;;;26.58;52.38;100701.44;5010355;28;20096;-65
2023/09/10 11:16:29;;;;;;;21.63;3.63;;;;;;;26.42;54.34;100697.47;5010029;28;20030;-67
2023/09/10 11:18:54;;;;;;;12.30;3.10;;;;;;;26.45;49.54;100715.91;5002034;28;20421;-63
2023/09/10 11:21:20;;;;;;;8.32;3.10;;;;;;;26.20;51.27;100705.06;5004140;28;20044;-64